Hinton, OK (73047)

2:50 AM CST on February 14, 2016 (GMT -0600)
Weatherford | | Change Station
CLOSE
Current Station
Airport
Location: Weatherford,
Elevation: 1604 ft
Nearby Weather Stations

Elev 1604 ft 35.54 °N, 98.67 °W | Updated 15 minutes ago

Clear
Clear
46 °F
Feels Like 41 °F
N
13
Wind Variable Wind from South

Today
High -- | Low -- °F
--% Chance of Precip.
Yesterday
High -- | Low -- °F
Precip. -- in
Pressure 29.85 in
Visibility 10.0 miles
Clouds Clear
Windchill 41 °F
Dew Point 45 °F
Humidity 93%
Rainfall 0.00 in
Snow Depth Not available.
7:21 AM 6:14 PM
Waxing Crescent, 39% visible
METAR KOJA 140835Z AUTO 17011KT 10SM CLR 08/07 A2985 RMK AO2
Pressure 29.85 in
Visibility 10.0 miles
Clouds Clear
Windchill 41 °F
Dew Point 45 °F
Humidity 93%
Rainfall 0.00 in
Snow Depth Not available.
7:21 AM 6:14 PM
Waxing Crescent, 39% visible
METAR KOJA 140835Z AUTO 17011KT 10SM CLR 08/07 A2985 RMK AO2

10-Day Weather Forecast

Almanac

Astronomy

Feb. 14, 2016 Rise Set
Actual Time
Civil Twilight
Nautical Twilight
Astronomical Twilight
Moon
Length of Visible Light
Length of Day
Tomorrow will be .
, % of the Moon is Illuminated

Today's Extremes

State Highs State Lows

Community

WunderPhotos

Upload Photos

1,892,763 photos uploaded!

WunderBlog® & News

Nearby

Air Quality

  Air Quality AQ Index Pollutant
Not available.

Snow Depth

Station Depth Elevation

Earthquake Activity

City Distance Mag. Time & Date
Minimum magnitude displayed is 2.5.

Coastal Water Temperatures

Place Temperature

Stations

Nearby Weather Stations

Station Location Temp. Windchill Dew Point Humidity Wind Precip. Elev Updated Type
                   

Watches & Warnings

There are currently no watches in effect.